sensor_id;sensor_type;location;lat;lon;timestamp;P1;durP1;ratioP1;P2;durP2;ratioP2
6037;SDS011;3047;42.600;23.470;2022-10-16T00:00:32;0.83;;;0.83;;
6037;SDS011;3047;42.600;23.470;2022-10-16T00:03:00;0.93;;;0.93;;
6037;SDS011;3047;42.600;23.470;2022-10-16T00:05:27;0.70;;;0.70;;
6037;SDS011;3047;42.600;23.470;2022-10-16T00:07:54;0.77;;;0.77;;
6037;SDS011;3047;42.600;23.470;2022-10-16T00:10:21;0.97;;;0.97;;
6037;SDS011;3047;42.600;23.470;2022-10-16T00:12:48;0.87;;;0.87;;
6037;SDS011;3047;42.600;23.470;2022-10-16T00:15:16;0.73;;;0.73;;
6037;SDS011;3047;42.600;23.470;2022-10-16T00:17:43;4.97;;;0.83;;
6037;SDS011;3047;42.600;23.470;2022-10-16T00:20:09;1.47;;;1.47;;
6037;SDS011;3047;42.600;23.470;2022-10-16T00:22:36;0.97;;;0.97;;
6037;SDS011;3047;42.600;23.470;2022-10-16T00:25:03;1.80;;;1.30;;
6037;SDS011;3047;42.600;23.470;2022-10-16T00:27:30;0.80;;;0.80;;
6037;SDS011;3047;42.600;23.470;2022-10-16T00:29:57;1.30;;;1.30;;
6037;SDS011;3047;42.600;23.470;2022-10-16T00:32:25;0.60;;;0.60;;
6037;SDS011;3047;42.600;23.470;2022-10-16T00:34:51;0.73;;;0.73;;
6037;SDS011;3047;42.600;23.470;2022-10-16T00:37:19;0.77;;;0.77;;
6037;SDS011;3047;42.600;23.470;2022-10-16T00:39:46;1.03;;;1.03;;
6037;SDS011;3047;42.600;23.470;2022-10-16T00:42:13;1.00;;;1.00;;
6037;SDS011;3047;42.600;23.470;2022-10-16T00:44:43;0.80;;;0.80;;
6037;SDS011;3047;42.600;23.470;2022-10-16T00:47:15;0.80;;;0.80;;
6037;SDS011;3047;42.600;23.470;2022-10-16T00:49:48;4.80;;;1.13;;
6037;SDS011;3047;42.600;23.470;2022-10-16T00:52:17;1.03;;;1.00;;
6037;SDS011;3047;42.600;23.470;2022-10-16T00:54:45;0.90;;;0.90;;
6037;SDS011;3047;42.600;23.470;2022-10-16T00:57:12;0.93;;;0.93;;
6037;SDS011;3047;42.600;23.470;2022-10-16T00:59:40;0.70;;;0.70;;
6037;SDS011;3047;42.600;23.470;2022-10-16T01:02:08;0.50;;;0.50;;
6037;SDS011;3047;42.600;23.470;2022-10-16T01:04:39;0.80;;;0.80;;
6037;SDS011;3047;42.600;23.470;2022-10-16T01:07:11;0.53;;;0.53;;
6037;SDS011;3047;42.600;23.470;2022-10-16T01:09:46;0.87;;;0.87;;
6037;SDS011;3047;42.600;23.470;2022-10-16T01:12:20;1.53;;;1.53;;
6037;SDS011;3047;42.600;23.470;2022-10-16T01:14:53;0.53;;;0.53;;
6037;SDS011;3047;42.600;23.470;2022-10-16T01:17:23;0.70;;;0.70;;
6037;SDS011;3047;42.600;23.470;2022-10-16T01:20:00;3.10;;;0.90;;
6037;SDS011;3047;42.600;23.470;2022-10-16T01:22:37;0.97;;;0.97;;
6037;SDS011;3047;42.600;23.470;2022-10-16T01:25:11;0.87;;;0.87;;
6037;SDS011;3047;42.600;23.470;2022-10-16T01:27:44;0.90;;;0.90;;
6037;SDS011;3047;42.600;23.470;2022-10-16T01:30:14;1.00;;;1.00;;
6037;SDS011;3047;42.600;23.470;2022-10-16T01:32:45;5.40;;;1.27;;
6037;SDS011;3047;42.600;23.470;2022-10-16T01:35:17;3.77;;;1.20;;
6037;SDS011;3047;42.600;23.470;2022-10-16T01:37:48;1.20;;;1.10;;
6037;SDS011;3047;42.600;23.470;2022-10-16T01:40:20;1.20;;;1.20;;
6037;SDS011;3047;42.600;23.470;2022-10-16T01:42:52;2.00;;;1.90;;
6037;SDS011;3047;42.600;23.470;2022-10-16T01:45:22;1.00;;;1.00;;
6037;SDS011;3047;42.600;23.470;2022-10-16T01:47:49;2.30;;;0.80;;
6037;SDS011;3047;42.600;23.470;2022-10-16T01:50:18;0.93;;;0.93;;
6037;SDS011;3047;42.600;23.470;2022-10-16T01:52:48;1.23;;;1.13;;
6037;SDS011;3047;42.600;23.470;2022-10-16T01:55:19;1.10;;;1.07;;
6037;SDS011;3047;42.600;23.470;2022-10-16T01:57:51;1.10;;;1.10;;
6037;SDS011;3047;42.600;23.470;2022-10-16T02:00:21;0.70;;;0.70;;
6037;SDS011;3047;42.600;23.470;2022-10-16T02:02:50;0.60;;;0.60;;
6037;SDS011;3047;42.600;23.470;2022-10-16T02:05:21;0.80;;;0.80;;
6037;SDS011;3047;42.600;23.470;2022-10-16T02:07:52;2.93;;;1.23;;
6037;SDS011;3047;42.600;23.470;2022-10-16T02:10:19;0.63;;;0.63;;
6037;SDS011;3047;42.600;23.470;2022-10-16T02:12:48;1.00;;;1.00;;
6037;SDS011;3047;42.600;23.470;2022-10-16T02:15:18;0.70;;;0.70;;
6037;SDS011;3047;42.600;23.470;2022-10-16T02:17:45;1.90;;;1.27;;
6037;SDS011;3047;42.600;23.470;2022-10-16T02:20:12;0.70;;;0.70;;
6037;SDS011;3047;42.600;23.470;2022-10-16T02:22:39;1.27;;;1.20;;
6037;SDS011;3047;42.600;23.470;2022-10-16T02:25:10;0.87;;;0.87;;
6037;SDS011;3047;42.600;23.470;2022-10-16T02:27:42;0.77;;;0.77;;
6037;SDS011;3047;42.600;23.470;2022-10-16T02:30:16;1.23;;;1.23;;
6037;SDS011;3047;42.600;23.470;2022-10-16T02:32:51;2.23;;;2.13;;
6037;SDS011;3047;42.600;23.470;2022-10-16T02:35:19;1.13;;;1.13;;
6037;SDS011;3047;42.600;23.470;2022-10-16T02:37:49;1.00;;;1.00;;
6037;SDS011;3047;42.600;23.470;2022-10-16T02:40:17;0.57;;;0.57;;
6037;SDS011;3047;42.600;23.470;2022-10-16T02:42:44;0.77;;;0.77;;
6037;SDS011;3047;42.600;23.470;2022-10-16T02:45:11;0.70;;;0.70;;
6037;SDS011;3047;42.600;23.470;2022-10-16T02:47:39;0.80;;;0.80;;
6037;SDS011;3047;42.600;23.470;2022-10-16T02:50:06;1.03;;;1.03;;
6037;SDS011;3047;42.600;23.470;2022-10-16T02:52:33;0.87;;;0.87;;
6037;SDS011;3047;42.600;23.470;2022-10-16T02:55:00;1.43;;;1.43;;
6037;SDS011;3047;42.600;23.470;2022-10-16T02:57:27;1.40;;;1.40;;
6037;SDS011;3047;42.600;23.470;2022-10-16T02:59:53;1.87;;;0.83;;
6037;SDS011;3047;42.600;23.470;2022-10-16T03:02:20;0.67;;;0.67;;
6037;SDS011;3047;42.600;23.470;2022-10-16T03:04:48;0.97;;;0.97;;
6037;SDS011;3047;42.600;23.470;2022-10-16T03:07:15;0.90;;;0.90;;
6037;SDS011;3047;42.600;23.470;2022-10-16T03:09:42;1.17;;;1.17;;
6037;SDS011;3047;42.600;23.470;2022-10-16T03:12:09;1.17;;;1.17;;
6037;SDS011;3047;42.600;23.470;2022-10-16T03:14:37;1.20;;;0.60;;
6037;SDS011;3047;42.600;23.470;2022-10-16T03:17:04;1.40;;;1.40;;
6037;SDS011;3047;42.600;23.470;2022-10-16T03:19:31;1.70;;;1.70;;
6037;SDS011;3047;42.600;23.470;2022-10-16T03:21:59;1.13;;;1.13;;
6037;SDS011;3047;42.600;23.470;2022-10-16T03:24:26;1.20;;;1.20;;
6037;SDS011;3047;42.600;23.470;2022-10-16T03:26:53;1.33;;;1.33;;
6037;SDS011;3047;42.600;23.470;2022-10-16T03:29:20;1.37;;;1.37;;
6037;SDS011;3047;42.600;23.470;2022-10-16T03:31:47;0.53;;;0.53;;
6037;SDS011;3047;42.600;23.470;2022-10-16T03:34:14;4.13;;;0.87;;
6037;SDS011;3047;42.600;23.470;2022-10-16T03:36:41;1.57;;;1.57;;
6037;SDS011;3047;42.600;23.470;2022-10-16T03:39:09;1.17;;;1.17;;
6037;SDS011;3047;42.600;23.470;2022-10-16T03:41:36;0.60;;;0.60;;
6037;SDS011;3047;42.600;23.470;2022-10-16T03:44:02;1.10;;;1.10;;
6037;SDS011;3047;42.600;23.470;2022-10-16T03:46:29;0.80;;;0.80;;
6037;SDS011;3047;42.600;23.470;2022-10-16T03:48:56;0.93;;;0.93;;
6037;SDS011;3047;42.600;23.470;2022-10-16T03:51:23;0.70;;;0.70;;
6037;SDS011;3047;42.600;23.470;2022-10-16T03:53:50;0.83;;;0.83;;
6037;SDS011;3047;42.600;23.470;2022-10-16T03:56:18;0.90;;;0.90;;
6037;SDS011;3047;42.600;23.470;2022-10-16T03:58:45;1.40;;;1.40;;
6037;SDS011;3047;42.600;23.470;2022-10-16T04:01:11;0.70;;;0.70;;
6037;SDS011;3047;42.600;23.470;2022-10-16T04:03:38;1.20;;;1.20;;
6037;SDS011;3047;42.600;23.470;2022-10-16T04:06:05;0.53;;;0.53;;
6037;SDS011;3047;42.600;23.470;2022-10-16T04:08:31;0.70;;;0.70;;
6037;SDS011;3047;42.600;23.470;2022-10-16T04:10:59;0.60;;;0.60;;
6037;SDS011;3047;42.600;23.470;2022-10-16T04:13:28;0.90;;;0.90;;
6037;SDS011;3047;42.600;23.470;2022-10-16T04:15:54;0.60;;;0.60;;
6037;SDS011;3047;42.600;23.470;2022-10-16T04:18:21;0.90;;;0.90;;
6037;SDS011;3047;42.600;23.470;2022-10-16T04:20:48;1.37;;;1.37;;
6037;SDS011;3047;42.600;23.470;2022-10-16T04:23:14;1.10;;;1.10;;
6037;SDS011;3047;42.600;23.470;2022-10-16T04:25:41;1.30;;;1.30;;
6037;SDS011;3047;42.600;23.470;2022-10-16T04:28:08;1.20;;;1.20;;
6037;SDS011;3047;42.600;23.470;2022-10-16T04:30:37;0.80;;;0.80;;
6037;SDS011;3047;42.600;23.470;2022-10-16T04:33:04;0.67;;;0.67;;
6037;SDS011;3047;42.600;23.470;2022-10-16T04:35:31;0.60;;;0.60;;
6037;SDS011;3047;42.600;23.470;2022-10-16T04:37:57;0.73;;;0.73;;
6037;SDS011;3047;42.600;23.470;2022-10-16T04:40:24;1.53;;;1.47;;
6037;SDS011;3047;42.600;23.470;2022-10-16T04:42:51;1.00;;;1.00;;
6037;SDS011;3047;42.600;23.470;2022-10-16T04:45:18;1.03;;;1.03;;
6037;SDS011;3047;42.600;23.470;2022-10-16T04:47:46;0.83;;;0.83;;
6037;SDS011;3047;42.600;23.470;2022-10-16T04:50:13;1.10;;;1.10;;
6037;SDS011;3047;42.600;23.470;2022-10-16T04:52:39;1.40;;;1.30;;
6037;SDS011;3047;42.600;23.470;2022-10-16T04:55:06;1.40;;;1.40;;
6037;SDS011;3047;42.600;23.470;2022-10-16T04:57:33;1.40;;;1.30;;
6037;SDS011;3047;42.600;23.470;2022-10-16T05:00:00;1.23;;;1.23;;
6037;SDS011;3047;42.600;23.470;2022-10-16T05:02:28;2.07;;;2.07;;
6037;SDS011;3047;42.600;23.470;2022-10-16T05:04:56;1.13;;;1.13;;
6037;SDS011;3047;42.600;23.470;2022-10-16T05:07:22;0.70;;;0.70;;
6037;SDS011;3047;42.600;23.470;2022-10-16T05:09:49;2.40;;;2.20;;
6037;SDS011;3047;42.600;23.470;2022-10-16T05:12:16;1.13;;;1.13;;
6037;SDS011;3047;42.600;23.470;2022-10-16T05:14:43;0.73;;;0.70;;
6037;SDS011;3047;42.600;23.470;2022-10-16T05:17:10;0.60;;;0.60;;
6037;SDS011;3047;42.600;23.470;2022-10-16T05:19:36;1.30;;;1.20;;
6037;SDS011;3047;42.600;23.470;2022-10-16T05:22:04;0.67;;;0.67;;
6037;SDS011;3047;42.600;23.470;2022-10-16T05:24:31;1.13;;;1.13;;
6037;SDS011;3047;42.600;23.470;2022-10-16T05:26:58;1.20;;;1.10;;
6037;SDS011;3047;42.600;23.470;2022-10-16T05:29:25;0.63;;;0.63;;
6037;SDS011;3047;42.600;23.470;2022-10-16T05:31:52;3.70;;;1.93;;
6037;SDS011;3047;42.600;23.470;2022-10-16T05:34:19;1.53;;;1.50;;
6037;SDS011;3047;42.600;23.470;2022-10-16T05:36:46;2.10;;;1.97;;
6037;SDS011;3047;42.600;23.470;2022-10-16T05:39:14;4.60;;;2.20;;
6037;SDS011;3047;42.600;23.470;2022-10-16T05:41:42;1.60;;;1.50;;
6037;SDS011;3047;42.600;23.470;2022-10-16T05:44:09;13.13;;;1.07;;
6037;SDS011;3047;42.600;23.470;2022-10-16T05:46:35;2.47;;;2.37;;
6037;SDS011;3047;42.600;23.470;2022-10-16T05:49:02;3.03;;;2.33;;
6037;SDS011;3047;42.600;23.470;2022-10-16T05:51:29;4.33;;;2.63;;
6037;SDS011;3047;42.600;23.470;2022-10-16T05:53:56;5.07;;;2.20;;
6037;SDS011;3047;42.600;23.470;2022-10-16T05:56:24;4.80;;;3.23;;
6037;SDS011;3047;42.600;23.470;2022-10-16T05:58:51;4.07;;;2.23;;
6037;SDS011;3047;42.600;23.470;2022-10-16T06:01:18;2.60;;;2.50;;
6037;SDS011;3047;42.600;23.470;2022-10-16T06:03:45;1.93;;;1.87;;
6037;SDS011;3047;42.600;23.470;2022-10-16T06:06:13;1.67;;;1.27;;
6037;SDS011;3047;42.600;23.470;2022-10-16T06:08:41;2.23;;;2.00;;
6037;SDS011;3047;42.600;23.470;2022-10-16T06:11:11;15.43;;;2.53;;
6037;SDS011;3047;42.600;23.470;2022-10-16T06:13:41;3.23;;;1.93;;
6037;SDS011;3047;42.600;23.470;2022-10-16T06:16:11;3.07;;;2.77;;
6037;SDS011;3047;42.600;23.470;2022-10-16T06:18:38;2.10;;;1.93;;
6037;SDS011;3047;42.600;23.470;2022-10-16T06:21:07;3.50;;;1.83;;
6037;SDS011;3047;42.600;23.470;2022-10-16T06:23:34;1.10;;;1.10;;
6037;SDS011;3047;42.600;23.470;2022-10-16T06:26:04;1.23;;;1.23;;
6037;SDS011;3047;42.600;23.470;2022-10-16T06:28:32;1.63;;;1.53;;
6037;SDS011;3047;42.600;23.470;2022-10-16T06:31:00;1.50;;;1.43;;
6037;SDS011;3047;42.600;23.470;2022-10-16T06:33:27;1.97;;;1.87;;
6037;SDS011;3047;42.600;23.470;2022-10-16T06:35:53;3.57;;;1.30;;
6037;SDS011;3047;42.600;23.470;2022-10-16T06:38:25;16.07;;;2.53;;
6037;SDS011;3047;42.600;23.470;2022-10-16T06:40:53;2.00;;;2.00;;
6037;SDS011;3047;42.600;23.470;2022-10-16T06:43:19;3.70;;;2.60;;
6037;SDS011;3047;42.600;23.470;2022-10-16T06:45:49;18.77;;;1.60;;
6037;SDS011;3047;42.600;23.470;2022-10-16T06:48:18;1.67;;;1.50;;
6037;SDS011;3047;42.600;23.470;2022-10-16T06:50:54;2.53;;;1.50;;
6037;SDS011;3047;42.600;23.470;2022-10-16T06:53:22;0.73;;;0.73;;
6037;SDS011;3047;42.600;23.470;2022-10-16T06:55:48;1.80;;;1.50;;
6037;SDS011;3047;42.600;23.470;2022-10-16T06:58:15;1.67;;;1.57;;
6037;SDS011;3047;42.600;23.470;2022-10-16T07:00:42;4.50;;;1.40;;
6037;SDS011;3047;42.600;23.470;2022-10-16T07:03:08;1.60;;;1.50;;
6037;SDS011;3047;42.600;23.470;2022-10-16T07:05:38;1.00;;;1.00;;
6037;SDS011;3047;42.600;23.470;2022-10-16T07:08:05;1.70;;;1.60;;
6037;SDS011;3047;42.600;23.470;2022-10-16T07:10:32;1.13;;;1.10;;
6037;SDS011;3047;42.600;23.470;2022-10-16T07:12:58;2.67;;;1.50;;
6037;SDS011;3047;42.600;23.470;2022-10-16T07:15:25;1.23;;;1.23;;
6037;SDS011;3047;42.600;23.470;2022-10-16T07:17:53;1.00;;;0.90;;
6037;SDS011;3047;42.600;23.470;2022-10-16T07:20:20;0.77;;;0.77;;
6037;SDS011;3047;42.600;23.470;2022-10-16T07:22:48;0.97;;;0.97;;
6037;SDS011;3047;42.600;23.470;2022-10-16T07:25:14;2.30;;;2.10;;
6037;SDS011;3047;42.600;23.470;2022-10-16T07:27:41;2.30;;;1.47;;
6037;SDS011;3047;42.600;23.470;2022-10-16T07:30:08;1.80;;;1.73;;
6037;SDS011;3047;42.600;23.470;2022-10-16T07:32:35;2.47;;;1.40;;
6037;SDS011;3047;42.600;23.470;2022-10-16T07:35:02;1.50;;;1.07;;
6037;SDS011;3047;42.600;23.470;2022-10-16T07:37:30;1.97;;;1.73;;
6037;SDS011;3047;42.600;23.470;2022-10-16T07:39:58;2.07;;;1.97;;
6037;SDS011;3047;42.600;23.470;2022-10-16T07:42:25;1.63;;;1.33;;
6037;SDS011;3047;42.600;23.470;2022-10-16T07:44:53;0.80;;;0.80;;
6037;SDS011;3047;42.600;23.470;2022-10-16T07:47:19;0.97;;;0.97;;
6037;SDS011;3047;42.600;23.470;2022-10-16T07:49:46;1.57;;;1.20;;
6037;SDS011;3047;42.600;23.470;2022-10-16T07:52:13;1.20;;;1.20;;
6037;SDS011;3047;42.600;23.470;2022-10-16T07:54:40;2.40;;;2.00;;
6037;SDS011;3047;42.600;23.470;2022-10-16T07:57:08;1.53;;;1.43;;
6037;SDS011;3047;42.600;23.470;2022-10-16T07:59:35;0.80;;;0.80;;
6037;SDS011;3047;42.600;23.470;2022-10-16T08:02:01;1.07;;;1.07;;
6037;SDS011;3047;42.600;23.470;2022-10-16T08:04:28;1.87;;;1.77;;
6037;SDS011;3047;42.600;23.470;2022-10-16T08:06:55;1.67;;;1.57;;
6037;SDS011;3047;42.600;23.470;2022-10-16T08:09:22;0.80;;;0.80;;
6037;SDS011;3047;42.600;23.470;2022-10-16T08:11:48;1.57;;;1.57;;
6037;SDS011;3047;42.600;23.470;2022-10-16T08:14:18;1.47;;;1.37;;
6037;SDS011;3047;42.600;23.470;2022-10-16T08:16:44;2.13;;;1.40;;
6037;SDS011;3047;42.600;23.470;2022-10-16T08:19:11;0.97;;;0.97;;
6037;SDS011;3047;42.600;23.470;2022-10-16T08:21:38;0.93;;;0.93;;
6037;SDS011;3047;42.600;23.470;2022-10-16T08:24:04;1.10;;;1.10;;
6037;SDS011;3047;42.600;23.470;2022-10-16T08:26:31;2.00;;;1.37;;
6037;SDS011;3047;42.600;23.470;2022-10-16T08:28:58;1.03;;;1.03;;
6037;SDS011;3047;42.600;23.470;2022-10-16T08:31:26;0.67;;;0.67;;
6037;SDS011;3047;42.600;23.470;2022-10-16T08:33:53;0.97;;;0.97;;
6037;SDS011;3047;42.600;23.470;2022-10-16T08:36:19;1.20;;;1.10;;
6037;SDS011;3047;42.600;23.470;2022-10-16T08:38:47;1.23;;;1.23;;
6037;SDS011;3047;42.600;23.470;2022-10-16T08:41:19;0.70;;;0.70;;
6037;SDS011;3047;42.600;23.470;2022-10-16T08:44:09;1.00;;;1.00;;
6037;SDS011;3047;42.600;23.470;2022-10-16T08:46:51;0.97;;;0.97;;
6037;SDS011;3047;42.600;23.470;2022-10-16T08:49:22;0.80;;;0.80;;
6037;SDS011;3047;42.600;23.470;2022-10-16T08:51:49;1.13;;;1.13;;
6037;SDS011;3047;42.600;23.470;2022-10-16T08:54:22;0.83;;;0.83;;
6037;SDS011;3047;42.600;23.470;2022-10-16T08:56:55;1.13;;;1.10;;
6037;SDS011;3047;42.600;23.470;2022-10-16T08:59:22;1.13;;;1.13;;
6037;SDS011;3047;42.600;23.470;2022-10-16T09:01:50;1.20;;;1.20;;
6037;SDS011;3047;42.600;23.470;2022-10-16T09:07:15;1.33;;;1.20;;
6037;SDS011;3047;42.600;23.470;2022-10-16T09:09:52;1.77;;;1.00;;
6037;SDS011;3047;42.600;23.470;2022-10-16T09:12:31;1.30;;;1.30;;
6037;SDS011;3047;42.600;23.470;2022-10-16T09:15:07;0.90;;;0.77;;
6037;SDS011;3047;42.600;23.470;2022-10-16T09:17:47;0.60;;;0.60;;
6037;SDS011;3047;42.600;23.470;2022-10-16T09:20:30;1.60;;;1.53;;
6037;SDS011;3047;42.600;23.470;2022-10-16T09:23:13;0.80;;;0.80;;
6037;SDS011;3047;42.600;23.470;2022-10-16T09:25:44;0.83;;;0.83;;
6037;SDS011;3047;42.600;23.470;2022-10-16T09:28:14;0.70;;;0.70;;
6037;SDS011;3047;42.600;23.470;2022-10-16T09:30:41;1.40;;;1.33;;
6037;SDS011;3047;42.600;23.470;2022-10-16T09:33:10;1.30;;;1.20;;
6037;SDS011;3047;42.600;23.470;2022-10-16T09:35:39;1.63;;;1.33;;
6037;SDS011;3047;42.600;23.470;2022-10-16T09:38:08;1.73;;;1.37;;
6037;SDS011;3047;42.600;23.470;2022-10-16T09:40:46;0.87;;;0.83;;
6037;SDS011;3047;42.600;23.470;2022-10-16T09:43:18;1.23;;;1.23;;
6037;SDS011;3047;42.600;23.470;2022-10-16T09:45:54;1.40;;;1.30;;
6037;SDS011;3047;42.600;23.470;2022-10-16T09:48:25;1.23;;;1.23;;
6037;SDS011;3047;42.600;23.470;2022-10-16T09:50:58;2.50;;;1.43;;
6037;SDS011;3047;42.600;23.470;2022-10-16T09:53:26;2.20;;;0.90;;
6037;SDS011;3047;42.600;23.470;2022-10-16T09:56:05;1.40;;;1.40;;
6037;SDS011;3047;42.600;23.470;2022-10-16T09:58:32;2.23;;;0.93;;
6037;SDS011;3047;42.600;23.470;2022-10-16T10:00:59;2.63;;;1.10;;
6037;SDS011;3047;42.600;23.470;2022-10-16T10:03:35;1.10;;;1.10;;
6037;SDS011;3047;42.600;23.470;2022-10-16T10:06:06;0.97;;;0.97;;
6037;SDS011;3047;42.600;23.470;2022-10-16T10:08:52;0.67;;;0.67;;
6037;SDS011;3047;42.600;23.470;2022-10-16T10:14:08;0.90;;;0.90;;
6037;SDS011;3047;42.600;23.470;2022-10-16T10:16:43;0.90;;;0.83;;
6037;SDS011;3047;42.600;23.470;2022-10-16T10:19:13;1.20;;;1.10;;
6037;SDS011;3047;42.600;23.470;2022-10-16T10:21:41;20.70;;;1.10;;
6037;SDS011;3047;42.600;23.470;2022-10-16T10:24:10;1.53;;;1.53;;
6037;SDS011;3047;42.600;23.470;2022-10-16T10:26:37;0.80;;;0.80;;
6037;SDS011;3047;42.600;23.470;2022-10-16T10:29:09;0.90;;;0.90;;
6037;SDS011;3047;42.600;23.470;2022-10-16T10:31:44;0.90;;;0.90;;
6037;SDS011;3047;42.600;23.470;2022-10-16T10:34:25;0.70;;;0.70;;
6037;SDS011;3047;42.600;23.470;2022-10-16T10:37:07;1.63;;;1.53;;
6037;SDS011;3047;42.600;23.470;2022-10-16T10:39:47;1.10;;;1.10;;
6037;SDS011;3047;42.600;23.470;2022-10-16T10:42:22;1.00;;;1.00;;
6037;SDS011;3047;42.600;23.470;2022-10-16T10:44:57;0.80;;;0.80;;
6037;SDS011;3047;42.600;23.470;2022-10-16T10:47:46;1.00;;;1.00;;
6037;SDS011;3047;42.600;23.470;2022-10-16T10:50:24;0.68;;;0.68;;
6037;SDS011;3047;42.600;23.470;2022-10-16T10:52:58;0.70;;;0.70;;
6037;SDS011;3047;42.600;23.470;2022-10-16T10:55:36;0.88;;;0.88;;
6037;SDS011;3047;42.600;23.470;2022-10-16T11:01:03;0.90;;;0.90;;
6037;SDS011;3047;42.600;23.470;2022-10-16T11:03:41;0.75;;;0.75;;
6037;SDS011;3047;42.600;23.470;2022-10-16T11:06:22;0.90;;;0.90;;
6037;SDS011;3047;42.600;23.470;2022-10-16T11:08:53;0.85;;;0.85;;
6037;SDS011;3047;42.600;23.470;2022-10-16T11:11:27;0.98;;;0.98;;
6037;SDS011;3047;42.600;23.470;2022-10-16T11:13:59;0.80;;;0.80;;
6037;SDS011;3047;42.600;23.470;2022-10-16T11:16:31;0.90;;;0.90;;
6037;SDS011;3047;42.600;23.470;2022-10-16T11:19:03;0.90;;;0.90;;
6037;SDS011;3047;42.600;23.470;2022-10-16T11:21:41;0.70;;;0.70;;
6037;SDS011;3047;42.600;23.470;2022-10-16T11:24:14;0.98;;;0.98;;
6037;SDS011;3047;42.600;23.470;2022-10-16T11:26:45;1.05;;;1.05;;
6037;SDS011;3047;42.600;23.470;2022-10-16T11:29:15;0.82;;;0.82;;
6037;SDS011;3047;42.600;23.470;2022-10-16T11:31:46;1.00;;;1.00;;
6037;SDS011;3047;42.600;23.470;2022-10-16T11:34:17;0.95;;;0.95;;
6037;SDS011;3047;42.600;23.470;2022-10-16T11:36:53;0.75;;;0.75;;
6037;SDS011;3047;42.600;23.470;2022-10-16T11:39:25;0.82;;;0.82;;
6037;SDS011;3047;42.600;23.470;2022-10-16T11:41:54;0.60;;;0.60;;
6037;SDS011;3047;42.600;23.470;2022-10-16T11:44:32;1.27;;;1.27;;
6037;SDS011;3047;42.600;23.470;2022-10-16T11:47:08;1.80;;;1.80;;
6037;SDS011;3047;42.600;23.470;2022-10-16T11:49:42;0.77;;;0.77;;
6037;SDS011;3047;42.600;23.470;2022-10-16T11:52:14;0.75;;;0.75;;
6037;SDS011;3047;42.600;23.470;2022-10-16T11:54:47;0.90;;;0.90;;
6037;SDS011;3047;42.600;23.470;2022-10-16T11:57:20;0.85;;;0.85;;
6037;SDS011;3047;42.600;23.470;2022-10-16T11:59:51;0.50;;;0.50;;
6037;SDS011;3047;42.600;23.470;2022-10-16T12:05:19;0.50;;;0.50;;
6037;SDS011;3047;42.600;23.470;2022-10-16T12:07:54;1.00;;;1.00;;
6037;SDS011;3047;42.600;23.470;2022-10-16T12:10:28;1.05;;;1.05;;
6037;SDS011;3047;42.600;23.470;2022-10-16T12:13:01;0.77;;;0.77;;
6037;SDS011;3047;42.600;23.470;2022-10-16T12:15:29;0.80;;;0.80;;
6037;SDS011;3047;42.600;23.470;2022-10-16T12:17:57;0.63;;;0.63;;
6037;SDS011;3047;42.600;23.470;2022-10-16T12:20:26;0.77;;;0.77;;
6037;SDS011;3047;42.600;23.470;2022-10-16T12:22:57;0.63;;;0.63;;
6037;SDS011;3047;42.600;23.470;2022-10-16T12:25:27;0.98;;;0.98;;
6037;SDS011;3047;42.600;23.470;2022-10-16T12:27:57;0.73;;;0.73;;
6037;SDS011;3047;42.600;23.470;2022-10-16T12:30:29;0.80;;;0.80;;
6037;SDS011;3047;42.600;23.470;2022-10-16T12:32:58;0.63;;;0.63;;
6037;SDS011;3047;42.600;23.470;2022-10-16T12:35:28;0.90;;;0.90;;
6037;SDS011;3047;42.600;23.470;2022-10-16T12:38:05;1.13;;;1.00;;
6037;SDS011;3047;42.600;23.470;2022-10-16T12:40:35;0.90;;;0.90;;
6037;SDS011;3047;42.600;23.470;2022-10-16T12:43:23;0.73;;;0.73;;
6037;SDS011;3047;42.600;23.470;2022-10-16T12:46:00;0.90;;;0.90;;
6037;SDS011;3047;42.600;23.470;2022-10-16T12:48:28;0.60;;;0.60;;
6037;SDS011;3047;42.600;23.470;2022-10-16T12:50:56;0.85;;;0.85;;
6037;SDS011;3047;42.600;23.470;2022-10-16T12:53:25;0.60;;;0.60;;
6037;SDS011;3047;42.600;23.470;2022-10-16T12:55:59;0.63;;;0.63;;
6037;SDS011;3047;42.600;23.470;2022-10-16T12:58:47;0.98;;;0.98;;
6037;SDS011;3047;42.600;23.470;2022-10-16T13:01:28;0.90;;;0.90;;
6037;SDS011;3047;42.600;23.470;2022-10-16T13:04:04;0.77;;;0.77;;
6037;SDS011;3047;42.600;23.470;2022-10-16T13:06:43;1.05;;;1.05;;
6037;SDS011;3047;42.600;23.470;2022-10-16T13:09:26;0.93;;;0.93;;
6037;SDS011;3047;42.600;23.470;2022-10-16T13:12:23;1.50;;;1.50;;
6037;SDS011;3047;42.600;23.470;2022-10-16T13:15:16;1.25;;;1.25;;
6037;SDS011;3047;42.600;23.470;2022-10-16T13:17:53;1.00;;;1.00;;
6037;SDS011;3047;42.600;23.470;2022-10-16T13:20:29;0.80;;;0.80;;
6037;SDS011;3047;42.600;23.470;2022-10-16T13:23:03;0.73;;;0.73;;
6037;SDS011;3047;42.600;23.470;2022-10-16T13:25:43;0.77;;;0.77;;
6037;SDS011;3047;42.600;23.470;2022-10-16T13:28:21;0.68;;;0.68;;
6037;SDS011;3047;42.600;23.470;2022-10-16T13:30:54;0.80;;;0.80;;
6037;SDS011;3047;42.600;23.470;2022-10-16T13:33:24;0.60;;;0.60;;
6037;SDS011;3047;42.600;23.470;2022-10-16T13:35:56;1.00;;;1.00;;
6037;SDS011;3047;42.600;23.470;2022-10-16T13:38:24;0.80;;;0.80;;
6037;SDS011;3047;42.600;23.470;2022-10-16T13:40:54;0.82;;;0.82;;
6037;SDS011;3047;42.600;23.470;2022-10-16T13:43:24;0.75;;;0.75;;
6037;SDS011;3047;42.600;23.470;2022-10-16T13:45:55;0.77;;;0.77;;
6037;SDS011;3047;42.600;23.470;2022-10-16T13:48:23;0.77;;;0.77;;
6037;SDS011;3047;42.600;23.470;2022-10-16T13:51:00;0.50;;;0.50;;
6037;SDS011;3047;42.600;23.470;2022-10-16T13:53:29;0.70;;;0.70;;
6037;SDS011;3047;42.600;23.470;2022-10-16T13:55:58;0.73;;;0.73;;
6037;SDS011;3047;42.600;23.470;2022-10-16T13:58:26;4.10;;;2.45;;
6037;SDS011;3047;42.600;23.470;2022-10-16T14:00:54;1.90;;;1.50;;
6037;SDS011;3047;42.600;23.470;2022-10-16T14:03:22;2.00;;;2.00;;
6037;SDS011;3047;42.600;23.470;2022-10-16T14:05:51;1.13;;;1.10;;
6037;SDS011;3047;42.600;23.470;2022-10-16T14:08:19;2.80;;;1.20;;
6037;SDS011;3047;42.600;23.470;2022-10-16T14:10:48;11.77;;;5.25;;
6037;SDS011;3047;42.600;23.470;2022-10-16T14:13:18;13.55;;;6.65;;
6037;SDS011;3047;42.600;23.470;2022-10-16T14:15:49;23.73;;;5.47;;
6037;SDS011;3047;42.600;23.470;2022-10-16T14:18:20;6.72;;;3.25;;
6037;SDS011;3047;42.600;23.470;2022-10-16T14:20:49;12.10;;;1.85;;
6037;SDS011;3047;42.600;23.470;2022-10-16T14:23:19;2.33;;;1.85;;
6037;SDS011;3047;42.600;23.470;2022-10-16T14:25:47;1.10;;;1.10;;
6037;SDS011;3047;42.600;23.470;2022-10-16T14:28:15;1.17;;;0.98;;
6037;SDS011;3047;42.600;23.470;2022-10-16T14:30:51;0.80;;;0.80;;
6037;SDS011;3047;42.600;23.470;2022-10-16T14:33:20;0.93;;;0.93;;
6037;SDS011;3047;42.600;23.470;2022-10-16T14:35:59;1.42;;;1.35;;
6037;SDS011;3047;42.600;23.470;2022-10-16T14:38:28;6.28;;;2.92;;
6037;SDS011;3047;42.600;23.470;2022-10-16T14:40:56;7.97;;;1.23;;
6037;SDS011;3047;42.600;23.470;2022-10-16T14:43:26;1.20;;;1.20;;
6037;SDS011;3047;42.600;23.470;2022-10-16T14:45:59;1.08;;;1.08;;
6037;SDS011;3047;42.600;23.470;2022-10-16T14:48:28;1.10;;;1.10;;
6037;SDS011;3047;42.600;23.470;2022-10-16T14:50:55;0.98;;;0.98;;
6037;SDS011;3047;42.600;23.470;2022-10-16T14:53:22;0.85;;;0.85;;
6037;SDS011;3047;42.600;23.470;2022-10-16T14:55:49;1.27;;;1.27;;
6037;SDS011;3047;42.600;23.470;2022-10-16T14:58:17;1.00;;;1.00;;
6037;SDS011;3047;42.600;23.470;2022-10-16T15:00:46;3.87;;;1.03;;
6037;SDS011;3047;42.600;23.470;2022-10-16T15:03:14;1.00;;;1.00;;
6037;SDS011;3047;42.600;23.470;2022-10-16T15:05:41;0.90;;;0.90;;
6037;SDS011;3047;42.600;23.470;2022-10-16T15:08:08;1.00;;;1.00;;
6037;SDS011;3047;42.600;23.470;2022-10-16T15:10:37;1.17;;;1.17;;
6037;SDS011;3047;42.600;23.470;2022-10-16T15:13:05;1.07;;;1.07;;
6037;SDS011;3047;42.600;23.470;2022-10-16T15:15:33;2.17;;;1.27;;
6037;SDS011;3047;42.600;23.470;2022-10-16T15:18:03;1.73;;;1.63;;
6037;SDS011;3047;42.600;23.470;2022-10-16T15:20:32;1.27;;;1.27;;
6037;SDS011;3047;42.600;23.470;2022-10-16T15:23:01;1.07;;;1.07;;
6037;SDS011;3047;42.600;23.470;2022-10-16T15:25:32;1.73;;;1.73;;
6037;SDS011;3047;42.600;23.470;2022-10-16T15:28:03;1.10;;;1.10;;